sensor_id;sensor_type;location;lat;lon;timestamp;P1;durP1;ratioP1;P2;durP2;ratioP2
26080;SDS011;13991;51.174;4.438;2023-07-31T00:01:46;38.70;;;5.40;;
26080;SDS011;13991;51.174;4.438;2023-07-31T00:04:12;30.37;;;5.97;;
26080;SDS011;13991;51.174;4.438;2023-07-31T00:06:37;33.00;;;5.37;;
26080;SDS011;13991;51.174;4.438;2023-07-31T00:09:03;33.97;;;6.27;;
26080;SDS011;13991;51.174;4.438;2023-07-31T00:11:29;30.57;;;5.60;;
26080;SDS011;13991;51.174;4.438;2023-07-31T00:13:54;28.60;;;5.93;;
26080;SDS011;13991;51.174;4.438;2023-07-31T00:16:20;33.87;;;6.57;;
26080;SDS011;13991;51.174;4.438;2023-07-31T00:18:46;24.57;;;5.60;;
26080;SDS011;13991;51.174;4.438;2023-07-31T00:21:11;27.30;;;6.60;;
26080;SDS011;13991;51.174;4.438;2023-07-31T00:23:37;26.90;;;6.47;;
26080;SDS011;13991;51.174;4.438;2023-07-31T00:26:03;37.57;;;6.27;;
26080;SDS011;13991;51.174;4.438;2023-07-31T00:28:28;25.67;;;6.60;;
26080;SDS011;13991;51.174;4.438;2023-07-31T00:30:54;27.13;;;7.20;;
26080;SDS011;13991;51.174;4.438;2023-07-31T00:33:20;34.23;;;6.73;;
26080;SDS011;13991;51.174;4.438;2023-07-31T00:35:45;28.70;;;5.57;;
26080;SDS011;13991;51.174;4.438;2023-07-31T00:38:12;25.13;;;5.67;;
26080;SDS011;13991;51.174;4.438;2023-07-31T00:40:38;24.00;;;5.73;;
26080;SDS011;13991;51.174;4.438;2023-07-31T00:43:06;36.37;;;7.87;;
26080;SDS011;13991;51.174;4.438;2023-07-31T00:45:32;27.27;;;6.90;;
26080;SDS011;13991;51.174;4.438;2023-07-31T00:47:58;27.93;;;6.83;;
26080;SDS011;13991;51.174;4.438;2023-07-31T00:50:24;35.50;;;8.07;;
26080;SDS011;13991;51.174;4.438;2023-07-31T00:52:51;30.80;;;6.07;;
26080;SDS011;13991;51.174;4.438;2023-07-31T00:55:16;31.93;;;6.30;;
26080;SDS011;13991;51.174;4.438;2023-07-31T00:57:42;27.20;;;6.63;;
26080;SDS011;13991;51.174;4.438;2023-07-31T01:00:10;44.57;;;7.73;;
26080;SDS011;13991;51.174;4.438;2023-07-31T01:02:36;29.63;;;7.23;;
26080;SDS011;13991;51.174;4.438;2023-07-31T01:05:02;29.03;;;6.20;;
26080;SDS011;13991;51.174;4.438;2023-07-31T01:07:35;36.07;;;7.40;;
26080;SDS011;13991;51.174;4.438;2023-07-31T01:10:30;27.77;;;6.37;;
26080;SDS011;13991;51.174;4.438;2023-07-31T01:13:00;25.97;;;6.47;;
26080;SDS011;13991;51.174;4.438;2023-07-31T01:15:28;35.10;;;6.87;;
26080;SDS011;13991;51.174;4.438;2023-07-31T01:17:54;22.10;;;5.53;;
26080;SDS011;13991;51.174;4.438;2023-07-31T01:20:24;38.63;;;6.37;;
26080;SDS011;13991;51.174;4.438;2023-07-31T01:28:10;29.17;;;5.60;;
26080;SDS011;13991;51.174;4.438;2023-07-31T01:30:43;20.13;;;6.17;;
26080;SDS011;13991;51.174;4.438;2023-07-31T01:33:12;32.03;;;6.53;;
26080;SDS011;13991;51.174;4.438;2023-07-31T01:35:39;22.03;;;5.87;;
26080;SDS011;13991;51.174;4.438;2023-07-31T01:38:07;31.20;;;6.80;;
26080;SDS011;13991;51.174;4.438;2023-07-31T01:40:33;35.43;;;6.67;;
26080;SDS011;13991;51.174;4.438;2023-07-31T01:42:59;38.90;;;7.50;;
26080;SDS011;13991;51.174;4.438;2023-07-31T01:45:24;36.73;;;6.13;;
26080;SDS011;13991;51.174;4.438;2023-07-31T01:47:53;31.67;;;6.73;;
26080;SDS011;13991;51.174;4.438;2023-07-31T01:50:19;31.80;;;6.33;;
26080;SDS011;13991;51.174;4.438;2023-07-31T01:52:44;30.40;;;6.87;;
26080;SDS011;13991;51.174;4.438;2023-07-31T01:55:10;23.43;;;6.30;;
26080;SDS011;13991;51.174;4.438;2023-07-31T01:57:39;30.47;;;7.10;;
26080;SDS011;13991;51.174;4.438;2023-07-31T02:00:05;39.20;;;6.63;;
26080;SDS011;13991;51.174;4.438;2023-07-31T02:02:31;40.37;;;6.47;;
26080;SDS011;13991;51.174;4.438;2023-07-31T02:04:57;33.33;;;6.93;;
26080;SDS011;13991;51.174;4.438;2023-07-31T02:07:23;25.23;;;6.67;;
26080;SDS011;13991;51.174;4.438;2023-07-31T02:09:48;32.77;;;6.17;;
26080;SDS011;13991;51.174;4.438;2023-07-31T02:12:14;26.90;;;5.83;;
26080;SDS011;13991;51.174;4.438;2023-07-31T02:14:40;33.40;;;7.60;;
26080;SDS011;13991;51.174;4.438;2023-07-31T02:17:06;38.33;;;6.33;;
26080;SDS011;13991;51.174;4.438;2023-07-31T02:19:31;32.30;;;6.83;;
26080;SDS011;13991;51.174;4.438;2023-07-31T02:21:57;23.87;;;5.80;;
26080;SDS011;13991;51.174;4.438;2023-07-31T02:24:23;32.87;;;5.70;;
26080;SDS011;13991;51.174;4.438;2023-07-31T02:26:49;23.80;;;5.50;;
26080;SDS011;13991;51.174;4.438;2023-07-31T02:29:15;35.30;;;6.47;;
26080;SDS011;13991;51.174;4.438;2023-07-31T02:31:41;26.93;;;6.67;;
26080;SDS011;13991;51.174;4.438;2023-07-31T02:34:06;28.17;;;6.43;;
26080;SDS011;13991;51.174;4.438;2023-07-31T02:36:32;23.93;;;6.20;;
26080;SDS011;13991;51.174;4.438;2023-07-31T02:38:58;27.27;;;5.93;;
26080;SDS011;13991;51.174;4.438;2023-07-31T02:41:23;38.30;;;5.90;;
26080;SDS011;13991;51.174;4.438;2023-07-31T02:43:49;27.43;;;6.13;;
26080;SDS011;13991;51.174;4.438;2023-07-31T02:46:16;30.67;;;6.40;;
26080;SDS011;13991;51.174;4.438;2023-07-31T02:48:41;26.97;;;6.30;;
26080;SDS011;13991;51.174;4.438;2023-07-31T02:51:07;27.03;;;5.53;;
26080;SDS011;13991;51.174;4.438;2023-07-31T02:53:33;36.90;;;5.90;;
26080;SDS011;13991;51.174;4.438;2023-07-31T02:55:58;23.63;;;5.23;;
26080;SDS011;13991;51.174;4.438;2023-07-31T02:58:24;29.37;;;5.63;;
26080;SDS011;13991;51.174;4.438;2023-07-31T03:00:53;34.73;;;6.03;;
26080;SDS011;13991;51.174;4.438;2023-07-31T03:03:18;31.27;;;5.87;;
26080;SDS011;13991;51.174;4.438;2023-07-31T03:05:44;23.97;;;5.87;;
26080;SDS011;13991;51.174;4.438;2023-07-31T03:08:10;27.57;;;6.20;;
26080;SDS011;13991;51.174;4.438;2023-07-31T03:10:35;38.33;;;6.57;;
26080;SDS011;13991;51.174;4.438;2023-07-31T03:13:01;25.13;;;5.67;;
26080;SDS011;13991;51.174;4.438;2023-07-31T03:15:27;20.40;;;5.50;;
26080;SDS011;13991;51.174;4.438;2023-07-31T03:17:52;29.80;;;6.00;;
26080;SDS011;13991;51.174;4.438;2023-07-31T03:20:18;21.93;;;5.17;;
26080;SDS011;13991;51.174;4.438;2023-07-31T03:22:43;27.20;;;6.10;;
26080;SDS011;13991;51.174;4.438;2023-07-31T03:25:09;35.67;;;4.87;;
26080;SDS011;13991;51.174;4.438;2023-07-31T03:27:35;26.57;;;5.10;;
26080;SDS011;13991;51.174;4.438;2023-07-31T03:30:02;28.23;;;5.40;;
26080;SDS011;13991;51.174;4.438;2023-07-31T03:32:28;25.67;;;5.73;;
26080;SDS011;13991;51.174;4.438;2023-07-31T03:34:53;18.33;;;4.60;;
26080;SDS011;13991;51.174;4.438;2023-07-31T03:37:19;26.90;;;5.50;;
26080;SDS011;13991;51.174;4.438;2023-07-31T03:39:45;28.27;;;5.23;;
26080;SDS011;13991;51.174;4.438;2023-07-31T03:42:11;20.73;;;5.47;;
26080;SDS011;13991;51.174;4.438;2023-07-31T03:44:36;23.60;;;5.10;;
26080;SDS011;13991;51.174;4.438;2023-07-31T03:47:02;22.73;;;5.37;;
26080;SDS011;13991;51.174;4.438;2023-07-31T03:49:28;23.63;;;5.30;;
26080;SDS011;13991;51.174;4.438;2023-07-31T03:51:53;24.00;;;5.23;;
26080;SDS011;13991;51.174;4.438;2023-07-31T03:54:19;30.30;;;5.60;;
26080;SDS011;13991;51.174;4.438;2023-07-31T03:56:45;20.93;;;5.73;;
26080;SDS011;13991;51.174;4.438;2023-07-31T03:59:10;20.43;;;5.30;;
26080;SDS011;13991;51.174;4.438;2023-07-31T04:01:36;29.07;;;5.97;;
26080;SDS011;13991;51.174;4.438;2023-07-31T04:04:02;31.30;;;5.07;;
26080;SDS011;13991;51.174;4.438;2023-07-31T04:06:28;22.50;;;5.87;;
26080;SDS011;13991;51.174;4.438;2023-07-31T04:08:53;25.67;;;6.43;;
26080;SDS011;13991;51.174;4.438;2023-07-31T04:11:19;26.13;;;6.53;;
26080;SDS011;13991;51.174;4.438;2023-07-31T04:13:45;22.57;;;5.90;;
26080;SDS011;13991;51.174;4.438;2023-07-31T04:16:10;24.17;;;5.77;;
26080;SDS011;13991;51.174;4.438;2023-07-31T04:18:37;24.70;;;7.37;;
26080;SDS011;13991;51.174;4.438;2023-07-31T04:21:03;39.40;;;6.13;;
26080;SDS011;13991;51.174;4.438;2023-07-31T04:23:30;13.97;;;5.07;;
26080;SDS011;13991;51.174;4.438;2023-07-31T04:25:56;17.43;;;4.63;;
26080;SDS011;13991;51.174;4.438;2023-07-31T04:28:22;19.30;;;5.83;;
26080;SDS011;13991;51.174;4.438;2023-07-31T04:30:47;17.07;;;4.93;;
26080;SDS011;13991;51.174;4.438;2023-07-31T04:33:13;18.60;;;4.83;;
26080;SDS011;13991;51.174;4.438;2023-07-31T04:35:39;26.13;;;5.10;;
26080;SDS011;13991;51.174;4.438;2023-07-31T04:38:05;19.80;;;5.15;;
26080;SDS011;13991;51.174;4.438;2023-07-31T04:40:31;25.37;;;5.60;;
26080;SDS011;13991;51.174;4.438;2023-07-31T04:42:56;17.00;;;4.93;;
26080;SDS011;13991;51.174;4.438;2023-07-31T04:45:22;21.50;;;5.03;;
26080;SDS011;13991;51.174;4.438;2023-07-31T04:47:48;21.25;;;4.97;;
26080;SDS011;13991;51.174;4.438;2023-07-31T04:50:13;13.30;;;4.83;;
26080;SDS011;13991;51.174;4.438;2023-07-31T04:52:39;19.03;;;5.33;;
26080;SDS011;13991;51.174;4.438;2023-07-31T04:55:07;13.57;;;4.57;;
26080;SDS011;13991;51.174;4.438;2023-07-31T04:57:34;17.03;;;4.43;;
26080;SDS011;13991;51.174;4.438;2023-07-31T04:59:59;18.70;;;4.50;;
26080;SDS011;13991;51.174;4.438;2023-07-31T05:02:26;14.37;;;4.37;;
26080;SDS011;13991;51.174;4.438;2023-07-31T05:04:52;12.07;;;4.27;;
26080;SDS011;13991;51.174;4.438;2023-07-31T05:07:18;13.23;;;3.90;;
26080;SDS011;13991;51.174;4.438;2023-07-31T05:09:47;16.53;;;3.80;;
26080;SDS011;13991;51.174;4.438;2023-07-31T05:12:12;14.53;;;4.10;;
26080;SDS011;13991;51.174;4.438;2023-07-31T05:17:24;11.90;;;4.27;;
26080;SDS011;13991;51.174;4.438;2023-07-31T05:19:49;19.42;;;5.80;;
26080;SDS011;13991;51.174;4.438;2023-07-31T05:22:15;13.95;;;5.57;;
26080;SDS011;13991;51.174;4.438;2023-07-31T05:24:41;15.17;;;5.33;;
26080;SDS011;13991;51.174;4.438;2023-07-31T05:27:06;15.23;;;4.43;;
26080;SDS011;13991;51.174;4.438;2023-07-31T05:29:32;16.23;;;4.93;;
26080;SDS011;13991;51.174;4.438;2023-07-31T05:31:58;17.13;;;4.40;;
26080;SDS011;13991;51.174;4.438;2023-07-31T05:34:24;16.03;;;5.10;;
26080;SDS011;13991;51.174;4.438;2023-07-31T05:36:49;21.83;;;4.37;;
26080;SDS011;13991;51.174;4.438;2023-07-31T05:39:15;17.33;;;4.97;;
26080;SDS011;13991;51.174;4.438;2023-07-31T05:41:41;13.37;;;5.20;;
26080;SDS011;13991;51.174;4.438;2023-07-31T05:44:06;21.07;;;4.63;;
26080;SDS011;13991;51.174;4.438;2023-07-31T05:46:32;14.60;;;4.30;;
26080;SDS011;13991;51.174;4.438;2023-07-31T05:48:58;14.40;;;4.30;;
26080;SDS011;13991;51.174;4.438;2023-07-31T05:51:25;11.83;;;3.87;;
26080;SDS011;13991;51.174;4.438;2023-07-31T05:53:52;10.30;;;4.57;;
26080;SDS011;13991;51.174;4.438;2023-07-31T05:56:18;13.77;;;4.63;;
26080;SDS011;13991;51.174;4.438;2023-07-31T05:58:43;16.93;;;4.07;;
26080;SDS011;13991;51.174;4.438;2023-07-31T06:01:09;10.93;;;4.87;;
26080;SDS011;13991;51.174;4.438;2023-07-31T06:03:35;18.67;;;4.33;;
26080;SDS011;13991;51.174;4.438;2023-07-31T06:06:00;8.90;;;4.20;;
26080;SDS011;13991;51.174;4.438;2023-07-31T06:08:26;11.53;;;4.33;;
26080;SDS011;13991;51.174;4.438;2023-07-31T06:10:52;17.03;;;4.93;;
26080;SDS011;13991;51.174;4.438;2023-07-31T06:13:19;11.83;;;4.37;;
26080;SDS011;13991;51.174;4.438;2023-07-31T06:15:44;14.87;;;4.37;;
26080;SDS011;13991;51.174;4.438;2023-07-31T06:18:12;15.57;;;4.77;;
26080;SDS011;13991;51.174;4.438;2023-07-31T06:20:37;13.23;;;4.13;;
26080;SDS011;13991;51.174;4.438;2023-07-31T06:23:05;21.80;;;5.57;;
26080;SDS011;13991;51.174;4.438;2023-07-31T06:25:31;15.17;;;4.83;;
26080;SDS011;13991;51.174;4.438;2023-07-31T06:27:57;12.70;;;4.43;;
26080;SDS011;13991;51.174;4.438;2023-07-31T06:30:23;14.47;;;4.93;;
26080;SDS011;13991;51.174;4.438;2023-07-31T06:32:49;21.97;;;4.03;;
26080;SDS011;13991;51.174;4.438;2023-07-31T06:35:15;11.57;;;4.20;;
26080;SDS011;13991;51.174;4.438;2023-07-31T06:37:42;19.70;;;4.87;;
26080;SDS011;13991;51.174;4.438;2023-07-31T06:40:09;15.00;;;4.80;;
26080;SDS011;13991;51.174;4.438;2023-07-31T06:42:35;11.83;;;4.07;;
26080;SDS011;13991;51.174;4.438;2023-07-31T06:45:01;17.50;;;5.40;;
26080;SDS011;13991;51.174;4.438;2023-07-31T06:47:27;11.43;;;4.33;;
26080;SDS011;13991;51.174;4.438;2023-07-31T06:49:53;15.07;;;5.00;;
26080;SDS011;13991;51.174;4.438;2023-07-31T06:52:21;24.80;;;4.23;;
26080;SDS011;13991;51.174;4.438;2023-07-31T06:55:00;21.27;;;4.88;;
26080;SDS011;13991;51.174;4.438;2023-07-31T06:57:41;17.87;;;4.63;;
26080;SDS011;13991;51.174;4.438;2023-07-31T07:00:07;17.67;;;4.50;;
26080;SDS011;13991;51.174;4.438;2023-07-31T07:02:33;25.57;;;5.00;;
26080;SDS011;13991;51.174;4.438;2023-07-31T07:04:59;15.23;;;4.77;;
26080;SDS011;13991;51.174;4.438;2023-07-31T07:07:26;17.93;;;5.13;;
26080;SDS011;13991;51.174;4.438;2023-07-31T07:09:52;14.60;;;4.30;;
26080;SDS011;13991;51.174;4.438;2023-07-31T07:12:21;22.67;;;4.60;;
26080;SDS011;13991;51.174;4.438;2023-07-31T07:14:46;20.37;;;4.47;;
26080;SDS011;13991;51.174;4.438;2023-07-31T07:17:13;22.40;;;5.10;;
26080;SDS011;13991;51.174;4.438;2023-07-31T07:19:41;15.03;;;4.30;;
26080;SDS011;13991;51.174;4.438;2023-07-31T07:22:08;33.30;;;4.63;;
26080;SDS011;13991;51.174;4.438;2023-07-31T07:24:34;14.63;;;4.63;;
26080;SDS011;13991;51.174;4.438;2023-07-31T07:27:00;14.87;;;4.60;;
26080;SDS011;13991;51.174;4.438;2023-07-31T07:29:26;24.43;;;4.57;;
26080;SDS011;13991;51.174;4.438;2023-07-31T07:31:51;22.93;;;4.60;;
26080;SDS011;13991;51.174;4.438;2023-07-31T07:34:17;30.13;;;4.70;;
26080;SDS011;13991;51.174;4.438;2023-07-31T07:36:43;22.47;;;4.87;;
26080;SDS011;13991;51.174;4.438;2023-07-31T07:39:10;24.50;;;4.87;;
26080;SDS011;13991;51.174;4.438;2023-07-31T07:41:36;16.60;;;4.33;;
26080;SDS011;13991;51.174;4.438;2023-07-31T07:44:01;21.57;;;5.13;;
26080;SDS011;13991;51.174;4.438;2023-07-31T07:46:27;19.43;;;4.60;;
26080;SDS011;13991;51.174;4.438;2023-07-31T07:48:53;14.73;;;4.70;;
26080;SDS011;13991;51.174;4.438;2023-07-31T07:51:19;18.83;;;4.77;;
26080;SDS011;13991;51.174;4.438;2023-07-31T07:53:44;15.67;;;4.03;;
26080;SDS011;13991;51.174;4.438;2023-07-31T07:56:10;26.33;;;5.60;;
26080;SDS011;13991;51.174;4.438;2023-07-31T07:58:36;25.63;;;5.57;;
26080;SDS011;13991;51.174;4.438;2023-07-31T08:01:01;31.83;;;5.07;;
26080;SDS011;13991;51.174;4.438;2023-07-31T08:03:27;19.63;;;4.67;;
26080;SDS011;13991;51.174;4.438;2023-07-31T08:05:57;15.77;;;3.57;;
26080;SDS011;13991;51.174;4.438;2023-07-31T08:08:26;11.13;;;4.03;;
26080;SDS011;13991;51.174;4.438;2023-07-31T08:10:53;12.80;;;3.63;;
26080;SDS011;13991;51.174;4.438;2023-07-31T08:13:18;10.33;;;3.63;;
26080;SDS011;13991;51.174;4.438;2023-07-31T08:15:44;16.90;;;4.00;;
26080;SDS011;13991;51.174;4.438;2023-07-31T08:18:10;15.60;;;4.00;;
26080;SDS011;13991;51.174;4.438;2023-07-31T08:20:36;10.67;;;3.60;;
26080;SDS011;13991;51.174;4.438;2023-07-31T08:23:02;17.93;;;4.30;;
26080;SDS011;13991;51.174;4.438;2023-07-31T08:25:28;21.47;;;4.20;;
26080;SDS011;13991;51.174;4.438;2023-07-31T08:27:54;22.30;;;3.70;;
26080;SDS011;13991;51.174;4.438;2023-07-31T08:30:20;9.87;;;3.63;;
26080;SDS011;13991;51.174;4.438;2023-07-31T08:32:46;9.33;;;3.23;;
26080;SDS011;13991;51.174;4.438;2023-07-31T08:35:12;9.67;;;3.53;;
26080;SDS011;13991;51.174;4.438;2023-07-31T08:37:38;19.97;;;4.13;;
26080;SDS011;13991;51.174;4.438;2023-07-31T08:40:04;14.03;;;3.67;;
26080;SDS011;13991;51.174;4.438;2023-07-31T08:42:30;20.23;;;4.40;;
26080;SDS011;13991;51.174;4.438;2023-07-31T08:44:57;18.53;;;3.97;;
26080;SDS011;13991;51.174;4.438;2023-07-31T08:47:25;15.33;;;4.23;;
26080;SDS011;13991;51.174;4.438;2023-07-31T08:49:51;11.33;;;3.40;;
26080;SDS011;13991;51.174;4.438;2023-07-31T08:52:19;14.17;;;3.20;;
26080;SDS011;13991;51.174;4.438;2023-07-31T08:54:45;8.03;;;3.17;;
26080;SDS011;13991;51.174;4.438;2023-07-31T08:57:11;11.90;;;2.67;;
26080;SDS011;13991;51.174;4.438;2023-07-31T08:59:37;10.50;;;3.47;;
26080;SDS011;13991;51.174;4.438;2023-07-31T09:02:07;10.73;;;3.57;;
26080;SDS011;13991;51.174;4.438;2023-07-31T09:04:34;11.67;;;3.23;;
26080;SDS011;13991;51.174;4.438;2023-07-31T09:07:01;6.47;;;2.87;;
26080;SDS011;13991;51.174;4.438;2023-07-31T09:09:29;7.93;;;3.07;;
26080;SDS011;13991;51.174;4.438;2023-07-31T09:11:57;10.00;;;2.90;;
26080;SDS011;13991;51.174;4.438;2023-07-31T09:14:24;9.03;;;3.33;;
26080;SDS011;13991;51.174;4.438;2023-07-31T09:16:51;12.97;;;2.83;;
26080;SDS011;13991;51.174;4.438;2023-07-31T09:19:24;9.60;;;3.20;;
26080;SDS011;13991;51.174;4.438;2023-07-31T09:22:02;10.03;;;3.00;;
26080;SDS011;13991;51.174;4.438;2023-07-31T09:24:29;8.30;;;2.93;;
26080;SDS011;13991;51.174;4.438;2023-07-31T09:26:56;12.33;;;3.33;;
26080;SDS011;13991;51.174;4.438;2023-07-31T09:29:26;15.53;;;2.83;;
26080;SDS011;13991;51.174;4.438;2023-07-31T09:31:53;12.67;;;3.50;;
26080;SDS011;13991;51.174;4.438;2023-07-31T10:44:28;10.83;;;3.53;;
26080;SDS011;13991;51.174;4.438;2023-07-31T10:55:50;8.37;;;3.50;;
26080;SDS011;13991;51.174;4.438;2023-07-31T10:58:19;12.47;;;4.27;;
26080;SDS011;13991;51.174;4.438;2023-07-31T11:00:48;11.97;;;3.77;;
26080;SDS011;13991;51.174;4.438;2023-07-31T11:03:15;29.27;;;4.47;;
26080;SDS011;13991;51.174;4.438;2023-07-31T11:05:43;18.53;;;4.27;;
26080;SDS011;13991;51.174;4.438;2023-07-31T11:08:14;14.00;;;4.70;;
26080;SDS011;13991;51.174;4.438;2023-07-31T11:10:46;11.33;;;4.77;;
26080;SDS011;13991;51.174;4.438;2023-07-31T11:13:33;10.63;;;4.20;;
26080;SDS011;13991;51.174;4.438;2023-07-31T11:16:23;12.97;;;4.67;;
26080;SDS011;13991;51.174;4.438;2023-07-31T11:18:50;13.23;;;4.63;;
26080;SDS011;13991;51.174;4.438;2023-07-31T11:21:19;12.07;;;4.97;;
26080;SDS011;13991;51.174;4.438;2023-07-31T11:23:48;17.93;;;4.97;;
26080;SDS011;13991;51.174;4.438;2023-07-31T11:26:16;19.57;;;5.80;;
26080;SDS011;13991;51.174;4.438;2023-07-31T11:28:48;12.27;;;4.53;;
26080;SDS011;13991;51.174;4.438;2023-07-31T11:31:15;14.50;;;4.80;;
26080;SDS011;13991;51.174;4.438;2023-07-31T11:33:43;19.57;;;5.27;;
26080;SDS011;13991;51.174;4.438;2023-07-31T11:36:18;19.10;;;5.70;;
26080;SDS011;13991;51.174;4.438;2023-07-31T11:38:45;18.00;;;5.60;;
26080;SDS011;13991;51.174;4.438;2023-07-31T11:41:13;17.47;;;4.70;;
26080;SDS011;13991;51.174;4.438;2023-07-31T11:43:43;12.50;;;4.67;;
26080;SDS011;13991;51.174;4.438;2023-07-31T11:46:10;14.80;;;5.10;;
26080;SDS011;13991;51.174;4.438;2023-07-31T11:48:40;17.77;;;6.17;;
26080;SDS011;13991;51.174;4.438;2023-07-31T11:51:07;18.60;;;5.20;;
26080;SDS011;13991;51.174;4.438;2023-07-31T11:53:47;15.83;;;4.30;;
26080;SDS011;13991;51.174;4.438;2023-07-31T11:56:17;21.40;;;5.97;;
26080;SDS011;13991;51.174;4.438;2023-07-31T11:58:47;20.97;;;5.47;;
26080;SDS011;13991;51.174;4.438;2023-07-31T12:01:16;17.77;;;5.00;;
26080;SDS011;13991;51.174;4.438;2023-07-31T12:03:45;21.17;;;5.57;;
26080;SDS011;13991;51.174;4.438;2023-07-31T12:06:13;16.00;;;4.73;;
26080;SDS011;13991;51.174;4.438;2023-07-31T12:08:40;10.90;;;4.60;;
26080;SDS011;13991;51.174;4.438;2023-07-31T12:11:07;16.87;;;5.07;;
26080;SDS011;13991;51.174;4.438;2023-07-31T12:13:34;19.27;;;5.43;;
26080;SDS011;13991;51.174;4.438;2023-07-31T12:16:01;15.30;;;5.13;;
26080;SDS011;13991;51.174;4.438;2023-07-31T12:18:29;14.17;;;4.73;;
26080;SDS011;13991;51.174;4.438;2023-07-31T12:21:00;18.47;;;4.93;;
26080;SDS011;13991;51.174;4.438;2023-07-31T12:23:28;21.50;;;5.37;;
26080;SDS011;13991;51.174;4.438;2023-07-31T12:28:40;10.20;;;4.50;;
26080;SDS011;13991;51.174;4.438;2023-07-31T12:31:14;16.10;;;4.77;;
26080;SDS011;13991;51.174;4.438;2023-07-31T12:33:44;25.70;;;5.47;;
26080;SDS011;13991;51.174;4.438;2023-07-31T12:36:12;19.80;;;5.33;;
26080;SDS011;13991;51.174;4.438;2023-07-31T12:38:39;18.40;;;4.70;;
26080;SDS011;13991;51.174;4.438;2023-07-31T12:41:06;19.27;;;5.20;;
26080;SDS011;13991;51.174;4.438;2023-07-31T12:43:32;12.37;;;4.10;;
26080;SDS011;13991;51.174;4.438;2023-07-31T12:46:02;12.47;;;3.90;;
26080;SDS011;13991;51.174;4.438;2023-07-31T12:48:34;12.90;;;4.20;;
26080;SDS011;13991;51.174;4.438;2023-07-31T12:51:00;21.53;;;5.30;;
26080;SDS011;13991;51.174;4.438;2023-07-31T12:53:27;17.73;;;4.87;;
26080;SDS011;13991;51.174;4.438;2023-07-31T12:55:53;11.60;;;5.03;;
26080;SDS011;13991;51.174;4.438;2023-07-31T12:58:19;15.53;;;5.17;;
26080;SDS011;13991;51.174;4.438;2023-07-31T13:00:45;17.80;;;4.63;;
26080;SDS011;13991;51.174;4.438;2023-07-31T13:03:10;17.07;;;4.90;;
26080;SDS011;13991;51.174;4.438;2023-07-31T13:05:36;13.23;;;5.13;;
26080;SDS011;13991;51.174;4.438;2023-07-31T13:08:04;24.53;;;5.20;;
26080;SDS011;13991;51.174;4.438;2023-07-31T13:10:30;17.77;;;4.80;;
26080;SDS011;13991;51.174;4.438;2023-07-31T13:12:56;18.17;;;5.10;;
26080;SDS011;13991;51.174;4.438;2023-07-31T13:15:23;13.73;;;4.83;;
26080;SDS011;13991;51.174;4.438;2023-07-31T13:17:50;15.60;;;4.97;;
26080;SDS011;13991;51.174;4.438;2023-07-31T13:20:16;14.27;;;4.60;;
26080;SDS011;13991;51.174;4.438;2023-07-31T13:22:42;12.90;;;4.63;;
26080;SDS011;13991;51.174;4.438;2023-07-31T13:25:07;15.40;;;4.30;;
26080;SDS011;13991;51.174;4.438;2023-07-31T13:27:34;14.43;;;4.53;;
26080;SDS011;13991;51.174;4.438;2023-07-31T13:30:01;45.47;;;11.97;;
26080;SDS011;13991;51.174;4.438;2023-07-31T13:32:27;15.27;;;5.40;;
26080;SDS011;13991;51.174;4.438;2023-07-31T13:34:53;19.43;;;5.53;;
26080;SDS011;13991;51.174;4.438;2023-07-31T13:37:20;20.27;;;4.83;;
26080;SDS011;13991;51.174;4.438;2023-07-31T13:39:45;18.00;;;4.73;;
26080;SDS011;13991;51.174;4.438;2023-07-31T13:42:11;16.80;;;4.20;;
26080;SDS011;13991;51.174;4.438;2023-07-31T13:44:40;21.37;;;4.50;;
26080;SDS011;13991;51.174;4.438;2023-07-31T13:47:07;12.93;;;4.50;;
26080;SDS011;13991;51.174;4.438;2023-07-31T13:49:34;15.37;;;4.20;;
26080;SDS011;13991;51.174;4.438;2023-07-31T13:52:00;7.47;;;3.33;;
26080;SDS011;13991;51.174;4.438;2023-07-31T13:54:27;4.50;;;2.67;;
26080;SDS011;13991;51.174;4.438;2023-07-31T13:56:52;8.43;;;2.93;;
26080;SDS011;13991;51.174;4.438;2023-07-31T13:59:18;11.70;;;3.03;;
26080;SDS011;13991;51.174;4.438;2023-07-31T14:01:45;6.17;;;2.00;;
26080;SDS011;13991;51.174;4.438;2023-07-31T14:04:11;9.13;;;2.70;;
26080;SDS011;13991;51.174;4.438;2023-07-31T14:06:37;5.50;;;2.30;;
26080;SDS011;13991;51.174;4.438;2023-07-31T14:09:03;8.33;;;2.27;;
26080;SDS011;13991;51.174;4.438;2023-07-31T14:11:32;8.63;;;2.37;;
26080;SDS011;13991;51.174;4.438;2023-07-31T14:13:58;5.93;;;1.70;;
26080;SDS011;13991;51.174;4.438;2023-07-31T14:16:24;3.83;;;1.10;;
26080;SDS011;13991;51.174;4.438;2023-07-31T14:18:50;7.70;;;1.70;;
26080;SDS011;13991;51.174;4.438;2023-07-31T14:21:15;7.27;;;1.77;;
26080;SDS011;13991;51.174;4.438;2023-07-31T14:23:41;2.43;;;1.20;;
26080;SDS011;13991;51.174;4.438;2023-07-31T14:26:07;5.13;;;1.70;;
26080;SDS011;13991;51.174;4.438;2023-07-31T14:28:33;5.83;;;1.57;;
26080;SDS011;13991;51.174;4.438;2023-07-31T14:30:58;3.20;;;1.23;;
26080;SDS011;13991;51.174;4.438;2023-07-31T14:33:24;4.20;;;1.33;;
26080;SDS011;13991;51.174;4.438;2023-07-31T14:35:50;5.90;;;1.40;;
26080;SDS011;13991;51.174;4.438;2023-07-31T14:38:15;5.93;;;1.67;;
26080;SDS011;13991;51.174;4.438;2023-07-31T14:40:42;6.30;;;1.70;;
26080;SDS011;13991;51.174;4.438;2023-07-31T14:43:08;3.80;;;1.60;;
26080;SDS011;13991;51.174;4.438;2023-07-31T14:45:34;11.33;;;1.93;;
26080;SDS011;13991;51.174;4.438;2023-07-31T14:48:00;10.77;;;1.73;;
26080;SDS011;13991;51.174;4.438;2023-07-31T14:50:26;7.17;;;2.17;;
26080;SDS011;13991;51.174;4.438;2023-07-31T14:52:52;8.50;;;2.20;;
26080;SDS011;13991;51.174;4.438;2023-07-31T14:55:18;4.93;;;2.33;;
26080;SDS011;13991;51.174;4.438;2023-07-31T14:57:44;8.57;;;2.40;;
26080;SDS011;13991;51.174;4.438;2023-07-31T15:00:10;3.83;;;1.90;;
26080;SDS011;13991;51.174;4.438;2023-07-31T15:02:36;8.93;;;3.00;;
26080;SDS011;13991;51.174;4.438;2023-07-31T15:05:02;12.30;;;2.37;;
26080;SDS011;13991;51.174;4.438;2023-07-31T15:07:29;11.23;;;2.60;;
26080;SDS011;13991;51.174;4.438;2023-07-31T15:09:54;5.13;;;2.00;;
26080;SDS011;13991;51.174;4.438;2023-07-31T15:12:20;6.27;;;2.07;;
26080;SDS011;13991;51.174;4.438;2023-07-31T15:14:46;12.10;;;2.43;;
26080;SDS011;13991;51.174;4.438;2023-07-31T15:17:13;8.30;;;1.97;;
26080;SDS011;13991;51.174;4.438;2023-07-31T15:19:38;6.27;;;1.67;;
26080;SDS011;13991;51.174;4.438;2023-07-31T15:22:04;9.07;;;2.67;;
26080;SDS011;13991;51.174;4.438;2023-07-31T15:24:30;8.20;;;2.33;;
26080;SDS011;13991;51.174;4.438;2023-07-31T15:26:56;9.07;;;1.60;;
26080;SDS011;13991;51.174;4.438;2023-07-31T15:29:23;5.30;;;1.60;;
26080;SDS011;13991;51.174;4.438;2023-07-31T15:31:49;5.50;;;1.33;;
26080;SDS011;13991;51.174;4.438;2023-07-31T15:34:15;9.67;;;1.40;;
26080;SDS011;13991;51.174;4.438;2023-07-31T15:36:41;10.50;;;1.83;;
26080;SDS011;13991;51.174;4.438;2023-07-31T15:39:06;6.53;;;1.27;;
26080;SDS011;13991;51.174;4.438;2023-07-31T15:41:39;4.93;;;1.27;;
26080;SDS011;13991;51.174;4.438;2023-07-31T15:44:05;2.73;;;1.03;;
26080;SDS011;13991;51.174;4.438;2023-07-31T15:46:31;6.40;;;1.10;;
26080;SDS011;13991;51.174;4.438;2023-07-31T15:48:57;8.00;;;1.13;;
26080;SDS011;13991;51.174;4.438;2023-07-31T15:51:23;2.57;;;1.07;;
26080;SDS011;13991;51.174;4.438;2023-07-31T15:53:49;4.33;;;0.80;;
26080;SDS011;13991;51.174;4.438;2023-07-31T15:56:15;3.37;;;0.83;;
26080;SDS011;13991;51.174;4.438;2023-07-31T15:58:41;3.57;;;0.73;;
26080;SDS011;13991;51.174;4.438;2023-07-31T16:01:07;3.13;;;0.60;;
26080;SDS011;13991;51.174;4.438;2023-07-31T16:03:33;3.10;;;0.90;;